In Rescue
 
Open Full Screen Window  High Contrast Mode
Wind Gusting 00 knots
06
April 19, 2021 10:00 PM EDT
Weather Information
Wind Direction
  290 °
Wind Speed
  06 kt (7 mph)
Wind Gust
  00 kt (0 mph)
Altimeter
29.93 in
Visibility
10 SM
Temperature
04° C
39° F
Dewpoint
00° C
32° F
Humidity
75%
Sky Condition
Overcast @ 7,000 ft
VFR

METAR KOEB 200200Z AUTO 29006KT 10SM OVC070 04/00 A2993 RMK AO2 T00421002

FAA Disclaimer: The data displayed is for advisory purposes only and is not to be used for flight planning or operations.